Time;durP1;ratioP1;P1;durP2;ratioP2;P2;SDS_P1;SDS_P2;PMS_P1;PMS_P2;Temp;Humidity;BMP_temperature;BMP_pressure;BME280_temperature;BME280_humidity;BME280_pressure;Samples;Min_cycle;Max_cycle;Signal;HPM_P1;HPM_P2
2023/06/04 00:00:53;;;;;;;5.93;2.72;;;7.40;98.20;;;;;;5103729;28;20047;-79
2023/06/04 00:03:19;;;;;;;6.53;2.35;;;7.40;98.20;;;;;;5078386;28;20053;-80
2023/06/04 00:05:44;;;;;;;2.65;2.40;;;7.40;98.10;;;;;;5101886;28;20157;-80
2023/06/04 00:08:10;;;;;;;6.18;2.70;;;7.40;98.20;;;;;;5098969;28;20516;-81
2023/06/04 00:10:39;;;;;;;4.22;2.10;;;7.30;98.10;;;;;;5109352;28;20015;-81
2023/06/04 00:13:05;;;;;;;4.30;2.42;;;7.40;98.20;;;;;;5107106;28;20024;-88
2023/06/04 00:15:31;;;;;;;4.85;1.98;;;7.30;98.20;;;;;;5077515;28;20024;-87
2023/06/04 00:17:57;;;;;;;3.85;2.47;;;7.30;98.10;;;;;;5107537;28;20427;-87
2023/06/04 00:20:23;;;;;;;3.83;2.85;;;7.20;98.20;;;;;;5102800;28;20092;-88
2023/06/04 00:22:49;;;;;;;5.05;2.50;;;7.20;98.20;;;;;;5107376;28;20023;-87
2023/06/04 00:25:15;;;;;;;3.60;2.58;;;7.20;98.20;;;;;;5087177;28;20114;-88
2023/06/04 00:27:41;;;;;;;6.13;3.30;;;7.20;98.20;;;;;;5098388;28;20027;-86
2023/06/04 00:30:07;;;;;;;4.43;2.45;;;7.20;98.30;;;;;;5097581;28;20034;-87
2023/06/04 00:32:33;;;;;;;4.47;2.17;;;7.10;98.30;;;;;;5121054;28;20384;-85
2023/06/04 00:34:59;;;;;;;6.00;2.80;;;7.20;98.30;;;;;;5111130;28;20021;-87
2023/06/04 00:37:27;;;;;;;8.70;2.92;;;7.20;98.40;;;;;;5114522;28;20047;-86
2023/06/04 00:39:53;;;;;;;6.53;2.63;;;7.10;98.40;;;;;;5123188;28;20028;-87
2023/06/04 00:42:19;;;;;;;5.68;2.63;;;7.10;98.40;;;;;;5092753;28;20040;-89
2023/06/04 00:44:47;;;;;;;5.82;2.28;;;7.10;98.40;;;;;;5080789;28;20016;-87
2023/06/04 00:47:16;;;;;;;;;;;7.10;98.40;;;;;;5106024;28;20047;-87
2023/06/04 00:49:43;;;;;;;2.92;2.63;;;7.10;98.30;;;;;;5103937;28;19911;-89
2023/06/04 00:52:10;;;;;;;3.47;2.67;;;7.10;98.30;;;;;;5103146;28;20047;-87
2023/06/04 00:54:37;;;;;;;2.42;2.10;;;7.00;98.30;;;;;;5101091;28;20100;-84
2023/06/04 00:57:04;;;;;;;4.82;2.53;;;7.00;98.50;;;;;;5126350;28;20004;-83
2023/06/04 00:59:32;;;;;;;4.53;2.55;;;6.90;98.70;;;;;;5117761;28;20019;-83
2023/06/04 01:02:22;;;;;;;6.18;2.20;;;7.00;98.70;;;;;;5102374;28;20110;-85
2023/06/04 01:05:08;;;;;;;4.75;2.33;;;7.00;98.80;;;;;;5093192;28;20027;-83
2023/06/04 01:07:35;;;;;;;3.70;2.47;;;6.90;98.80;;;;;;5088758;28;20032;-84
2023/06/04 01:10:02;;;;;;;7.43;2.58;;;6.90;98.80;;;;;;5103669;28;20125;-87
2023/06/04 01:12:27;;;;;;;2.55;2.00;;;6.90;98.90;;;;;;5096571;28;20455;-86
2023/06/04 01:14:53;;;;;;;6.50;2.47;;;6.90;99.00;;;;;;5100332;28;20023;-86
2023/06/04 01:17:23;;;;;;;3.75;2.40;;;6.90;99.00;;;;;;5088751;28;20024;-87
2023/06/04 01:20:11;;;;;;;7.43;2.63;;;6.90;98.90;;;;;;5104923;28;20019;-87
2023/06/04 01:22:59;;;;;;;4.63;2.40;;;7.00;98.90;;;;;;5095748;28;20027;-85
2023/06/04 01:25:43;;;;;;;3.97;2.30;;;7.00;98.80;;;;;;5102272;28;20019;-87
2023/06/04 01:28:11;;;;;;;4.07;2.13;;;7.00;98.80;;;;;;5096370;28;20434;-87
2023/06/04 01:30:42;;;;;;;3.70;2.67;;;7.00;98.80;;;;;;5118053;28;20015;-87
2023/06/04 01:33:10;;;;;;;4.50;2.50;;;7.00;98.80;;;;;;5107065;28;20046;-86
2023/06/04 01:35:36;;;;;;;5.07;2.40;;;7.00;98.90;;;;;;5098512;28;20026;-88
2023/06/04 01:38:03;;;;;;;2.92;2.08;;;7.00;98.80;;;;;;5090590;28;20020;-88
2023/06/04 01:40:29;;;;;;;6.60;2.30;;;7.00;98.70;;;;;;5092607;28;20017;-86
2023/06/04 01:42:55;;;;;;;3.08;2.50;;;7.10;98.70;;;;;;5105971;28;20094;-88
2023/06/04 01:45:26;;;;;;;3.70;2.28;;;7.10;98.70;;;;;;5083298;28;20024;-86
2023/06/04 01:47:53;;;;;;;3.80;2.30;;;7.10;98.80;;;;;;5093583;28;20063;-86
2023/06/04 01:50:19;;;;;;;4.15;2.20;;;7.20;98.70;;;;;;5075037;28;20020;-85
2023/06/04 01:52:45;;;;;;;3.78;2.30;;;7.20;98.50;;;;;;5093112;28;20061;-85
2023/06/04 01:55:14;;;;;;;5.43;2.45;;;7.30;98.40;;;;;;5109417;28;20074;-87
2023/06/04 01:57:41;;;;;;;2.92;2.17;;;7.30;98.30;;;;;;5104345;28;20111;-87
2023/06/04 02:00:10;;;;;;;4.97;2.13;;;7.30;98.20;;;;;;5112814;28;20016;-86
2023/06/04 02:02:36;;;;;;;6.63;1.73;;;7.30;98.20;;;;;;5107666;28;20059;-87
2023/06/04 02:05:08;;;;;;;3.43;1.87;;;7.40;98.30;;;;;;5114110;28;20023;-87
2023/06/04 02:07:39;;;;;;;6.07;2.75;;;7.40;98.20;;;;;;5102975;28;20028;-87
2023/06/04 02:10:09;;;;;;;2.88;1.95;;;7.40;98.20;;;;;;5101427;28;20016;-86
2023/06/04 02:12:37;;;;;;;3.42;2.45;;;7.40;98.10;;;;;;5121055;28;20665;-86
2023/06/04 02:15:04;;;;;;;2.85;2.28;;;7.50;98.00;;;;;;5120284;28;20020;-86
2023/06/04 02:17:32;;;;;;;3.23;2.33;;;7.50;97.90;;;;;;5124163;28;20128;-85
2023/06/04 02:19:59;;;;;;;4.55;2.80;;;7.50;97.90;;;;;;5109488;28;20309;-86
2023/06/04 02:22:25;;;;;;;3.67;2.10;;;7.60;97.90;;;;;;5123927;28;20023;-88
2023/06/04 02:24:51;;;;;;;3.00;2.13;;;7.60;97.80;;;;;;5094573;28;20355;-87
2023/06/04 02:27:17;;;;;;;8.40;2.65;;;7.60;97.80;;;;;;5079842;28;20058;-87
2023/06/04 02:29:43;;;;;;;6.10;2.38;;;7.60;97.70;;;;;;5094021;28;20024;-88
2023/06/04 02:32:10;;;;;;;5.38;2.05;;;7.70;97.60;;;;;;5091465;28;20087;-87
2023/06/04 02:34:36;;;;;;;3.42;2.08;;;7.70;97.60;;;;;;5109400;28;20105;-86
2023/06/04 02:37:03;;;;;;;4.30;2.85;;;7.80;97.50;;;;;;5113667;28;20028;-87
2023/06/04 02:39:29;;;;;;;2.65;2.17;;;7.80;97.40;;;;;;5117114;28;20014;-88
2023/06/04 02:41:55;;;;;;;4.65;2.25;;;7.90;97.30;;;;;;5113884;28;20012;-87
2023/06/04 02:44:21;;;;;;;3.55;2.00;;;7.90;97.20;;;;;;5095866;28;20020;-87
2023/06/04 02:46:47;;;;;;;5.18;1.88;;;8.00;97.20;;;;;;5108162;28;20031;-87
2023/06/04 02:49:13;;;;;;;3.53;2.33;;;8.00;97.20;;;;;;5105693;28;20032;-89
2023/06/04 02:51:43;;;;;;;4.22;2.38;;;8.10;97.00;;;;;;5116277;28;20024;-86
2023/06/04 02:54:09;;;;;;;6.72;2.28;;;8.10;96.90;;;;;;5079007;28;20142;-88
2023/06/04 02:56:37;;;;;;;2.33;1.92;;;8.20;96.80;;;;;;5096711;28;20038;-86
2023/06/04 02:59:02;;;;;;;;;;;8.40;96.70;;;;;;5094412;28;20073;-87
2023/06/04 03:01:29;;;;;;;5.40;1.80;;;8.50;96.60;;;;;;5097673;28;19896;-88
2023/06/04 03:03:55;;;;;;;5.20;2.30;;;8.50;96.20;;;;;;5104258;28;20028;-87
2023/06/04 03:06:22;;;;;;;3.08;1.98;;;8.70;96.40;;;;;;5096847;28;20058;-88
2023/06/04 03:08:49;;;;;;;6.75;2.17;;;8.90;96.30;;;;;;5096074;28;20024;-87
2023/06/04 03:11:16;;;;;;;6.13;1.88;;;9.00;95.90;;;;;;5105842;28;20051;-89
2023/06/04 03:13:42;;;;;;;3.53;2.10;;;9.00;95.70;;;;;;5102985;28;20020;-87
2023/06/04 03:16:11;;;;;;;2.90;1.60;;;9.10;95.50;;;;;;5090663;28;20084;-86
2023/06/04 03:18:37;;;;;;;3.97;1.90;;;9.20;95.30;;;;;;5114426;28;20061;-87
2023/06/04 03:21:04;;;;;;;2.13;1.65;;;9.30;95.00;;;;;;5114865;28;20079;-85
2023/06/04 03:23:31;;;;;;;2.95;1.40;;;9.20;94.70;;;;;;5123233;28;20016;-86
2023/06/04 03:25:57;;;;;;;4.03;1.77;;;9.20;94.80;;;;;;5105592;28;20024;-86
2023/06/04 03:28:23;;;;;;;2.78;1.75;;;9.20;94.70;;;;;;5101509;28;20511;-86
2023/06/04 03:30:48;;;;;;;1.75;1.30;;;9.30;94.70;;;;;;5108054;28;20141;-85
2023/06/04 03:33:14;;;;;;;2.72;1.92;;;9.40;94.70;;;;;;5097009;28;20027;-85
2023/06/04 03:35:41;;;;;;;4.30;1.90;;;9.50;94.80;;;;;;5089666;28;20020;-85
2023/06/04 03:38:07;;;;;;;2.28;1.42;;;9.60;94.60;;;;;;5102608;28;20434;-85
2023/06/04 03:40:33;;;;;;;5.90;2.40;;;9.60;94.20;;;;;;5096728;28;20032;-86
2023/06/04 03:43:00;;;;;;;2.05;1.50;;;9.60;94.30;;;;;;5097011;28;20024;-86
2023/06/04 03:45:26;;;;;;;2.63;1.67;;;9.60;94.40;;;;;;5095596;28;20015;-85
2023/06/04 03:47:52;;;;;;;1.98;1.40;;;9.70;94.30;;;;;;5097711;28;20040;-85
2023/06/04 03:50:19;;;;;;;4.13;2.17;;;9.80;94.30;;;;;;5100641;28;20030;-85
2023/06/04 03:52:45;;;;;;;1.70;1.60;;;9.90;94.00;;;;;;5103924;28;20028;-84
2023/06/04 03:55:11;;;;;;;2.78;1.50;;;9.80;93.70;;;;;;5109035;28;20397;-85
2023/06/04 03:57:38;;;;;;;2.35;1.60;;;9.90;93.80;;;;;;5095124;28;20016;-84
2023/06/04 04:00:06;;;;;;;4.80;1.88;;;10.00;93.80;;;;;;5094941;28;20012;-86
2023/06/04 04:02:32;;;;;;;4.60;2.17;;;10.00;93.80;;;;;;5112985;28;20024;-84
2023/06/04 04:04:59;;;;;;;2.30;1.35;;;10.10;93.50;;;;;;5104277;28;20427;-84
2023/06/04 04:07:25;;;;;;;2.55;1.88;;;10.20;93.50;;;;;;5104555;28;20032;-86
2023/06/04 04:09:52;;;;;;;2.78;1.67;;;10.20;93.20;;;;;;5108469;28;20027;-86
2023/06/04 04:12:18;;;;;;;2.65;1.70;;;10.20;93.20;;;;;;5091337;28;20164;-85
2023/06/04 04:14:44;;;;;;;3.35;1.95;;;10.20;93.30;;;;;;5096395;28;20024;-84
2023/06/04 04:17:09;;;;;;;4.97;2.03;;;10.30;93.20;;;;;;5101061;28;20024;-86
2023/06/04 04:19:36;;;;;;;6.22;2.05;;;10.30;93.00;;;;;;5095691;28;20020;-87
2023/06/04 04:22:02;;;;;;;5.03;1.92;;;10.40;92.90;;;;;;5097099;28;20039;-85
2023/06/04 04:24:28;;;;;;;5.25;1.60;;;10.40;92.80;;;;;;5094381;28;20031;-87
2023/06/04 04:26:54;;;;;;;3.80;1.60;;;10.50;92.70;;;;;;5104360;28;20147;-87
2023/06/04 04:29:27;;;;;;;3.17;1.65;;;10.60;92.50;;;;;;5083132;28;20016;-85
2023/06/04 04:31:57;;;;;;;2.38;1.52;;;10.70;92.70;;;;;;5099968;28;20061;-86
2023/06/04 04:34:25;;;;;;;4.63;1.80;;;10.80;92.50;;;;;;5108527;28;20493;-89
2023/06/04 04:36:52;;;;;;;3.55;1.73;;;10.90;92.50;;;;;;5094897;28;20032;-87
2023/06/04 04:39:25;;;;;;;2.13;1.57;;;11.00;92.00;;;;;;5106077;28;20063;-87
2023/06/04 04:41:51;;;;;;;10.23;1.50;;;11.00;91.90;;;;;;5098730;28;20020;-84
2023/06/04 04:44:17;;;;;;;3.00;1.75;;;11.00;91.60;;;;;;5106763;28;20203;-86
2023/06/04 04:46:43;;;;;;;5.38;1.83;;;11.10;91.90;;;;;;5095523;28;20032;-84
2023/06/04 04:49:09;;;;;;;2.03;1.40;;;11.20;91.70;;;;;;5105645;28;20019;-85
2023/06/04 04:51:36;;;;;;;1.92;1.48;;;11.20;91.70;;;;;;5115890;28;20032;-84
2023/06/04 04:54:02;;;;;;;1.92;1.15;;;11.40;91.40;;;;;;5107918;28;20424;-86
2023/06/04 04:56:28;;;;;;;3.90;1.63;;;11.40;90.90;;;;;;5100912;28;20040;-85
2023/06/04 04:58:55;;;;;;;;;;;11.40;91.00;;;;;;5082122;28;20097;-88
2023/06/04 05:01:22;;;;;;;4.35;1.38;;;11.40;91.20;;;;;;5108630;28;19904;-85
2023/06/04 05:03:48;;;;;;;1.60;1.35;;;11.40;91.30;;;;;;5107464;28;20095;-85
2023/06/04 05:06:14;;;;;;;2.53;1.52;;;11.60;91.40;;;;;;5130639;28;20028;-85
2023/06/04 05:08:42;;;;;;;2.28;1.40;;;12.00;91.20;;;;;;5124573;28;20027;-84
2023/06/04 05:11:08;;;;;;;3.20;1.20;;;12.90;90.00;;;;;;5094618;28;20062;-84
2023/06/04 05:13:34;;;;;;;4.35;1.50;;;13.90;86.00;;;;;;5103345;28;20028;-86
2023/06/04 05:16:06;;;;;;;1.38;1.15;;;14.90;81.50;;;;;;5077965;28;20084;-86
2023/06/04 05:18:40;;;;;;;4.75;1.42;;;15.80;76.60;;;;;;5104819;28;20042;-86
2023/06/04 05:21:07;;;;;;;1.42;1.30;;;16.50;73.40;;;;;;5078749;28;20088;-85
2023/06/04 05:23:37;;;;;;;6.47;1.67;;;17.00;70.80;;;;;;5102357;28;20438;-85
2023/06/04 05:26:04;;;;;;;1.60;1.30;;;17.70;68.50;;;;;;5112084;28;20024;-86
2023/06/04 05:28:32;;;;;;;4.20;1.50;;;;;;;;;;5094235;28;20066;-86
2023/06/04 05:30:59;;;;;;;1.85;1.40;;;;;;;;;;5074217;28;20050;-86
2023/06/04 05:33:30;;;;;;;4.55;1.40;;;18.50;66.60;;;;;;5113374;28;20019;-85
2023/06/04 05:35:59;;;;;;;3.63;1.35;;;19.90;58.90;;;;;;5115179;28;20068;-86
2023/06/04 05:38:25;;;;;;;2.08;1.42;;;20.50;58.90;;;;;;5112534;28;20028;-88
2023/06/04 05:40:55;;;;;;;2.40;1.33;;;21.50;56.60;;;;;;5119803;28;20024;-86
2023/06/04 05:43:21;;;;;;;5.18;1.48;;;22.40;53.30;;;;;;5110407;28;20522;-87
2023/06/04 05:45:48;;;;;;;3.28;1.17;;;22.90;51.90;;;;;;5086884;28;20105;-87
2023/06/04 05:48:13;;;;;;;2.80;1.77;;;23.50;49.70;;;;;;5121205;28;20059;-88
2023/06/04 05:50:39;;;;;;;3.90;1.50;;;24.00;49.70;;;;;;5109098;28;20035;-88
2023/06/04 05:53:05;;;;;;;1.67;1.27;;;24.60;47.20;;;;;;5094782;28;20384;-88
2023/06/04 05:55:31;;;;;;;2.00;1.35;;;24.80;45.90;;;;;;5103643;28;20485;-87
2023/06/04 05:57:57;;;;;;;3.72;1.15;;;24.80;45.90;;;;;;5118362;28;20053;-84
2023/06/04 06:00:23;;;;;;;2.35;0.90;;;24.90;45.00;;;;;;5126608;28;20047;-83
2023/06/04 06:02:54;;;;;;;2.13;1.40;;;25.40;44.40;;;;;;5116721;28;20030;-86
2023/06/04 06:05:20;;;;;;;1.48;0.90;;;25.60;42.80;;;;;;5098907;28;20056;-87
2023/06/04 06:07:47;;;;;;;4.22;1.40;;;26.00;41.90;;;;;;5113555;28;20023;-88
2023/06/04 06:10:15;;;;;;;2.53;1.23;;;26.50;41.60;;;;;;5115118;28;20020;-87
2023/06/04 06:12:41;;;;;;;1.55;1.27;;;27.30;40.00;;;;;;5095979;28;20046;-86
2023/06/04 06:15:07;;;;;;;2.53;1.25;;;27.40;39.50;;;;;;5081952;28;20020;-85
2023/06/04 06:17:33;;;;;;;3.67;1.52;;;26.60;40.30;;;;;;5093219;28;20416;-85
2023/06/04 06:19:59;;;;;;;4.15;1.30;;;25.00;41.00;;;;;;5083873;28;20028;-85
2023/06/04 06:22:25;;;;;;;1.15;1.05;;;23.30;42.50;;;;;;5102747;28;20040;-86
2023/06/04 06:24:51;;;;;;;3.17;1.15;;;22.50;44.40;;;;;;5092960;28;20603;-90
2023/06/04 06:27:17;;;;;;;2.72;1.00;;;22.50;45.70;;;;;;5095684;28;20066;-87
2023/06/04 06:29:46;;;;;;;1.90;0.90;;;24.30;44.20;;;;;;5107390;28;20012;-89
2023/06/04 06:32:12;;;;;;;1.30;0.80;;;26.40;41.40;;;;;;5092841;28;20028;-87
2023/06/04 06:34:44;;;;;;;4.13;1.33;;;27.70;39.00;;;;;;5102332;28;20020;-89
2023/06/04 06:37:10;;;;;;;1.92;1.45;;;27.90;37.90;;;;;;5108055;28;20028;-86
2023/06/04 06:39:36;;;;;;;3.60;1.02;;;27.50;38.50;;;;;;5104315;28;20031;-87
2023/06/04 06:42:08;;;;;;;1.38;0.90;;;27.70;38.30;;;;;;5100747;28;20083;-87
2023/06/04 06:44:34;;;;;;;1.73;0.90;;;28.20;37.60;;;;;;5109929;28;20098;-87
2023/06/04 06:47:00;;;;;;;1.25;0.85;;;28.80;36.40;;;;;;5116008;28;20039;-86
2023/06/04 06:49:26;;;;;;;1.88;1.13;;;28.00;36.10;;;;;;5103012;28;20024;-86
2023/06/04 06:51:52;;;;;;;6.13;1.20;;;27.40;37.70;;;;;;5084352;28;20032;-88
2023/06/04 06:54:27;;;;;;;1.63;1.20;;;27.60;37.80;;;;;;5091672;28;20734;-87
2023/06/04 06:56:53;;;;;;;1.48;1.10;;;26.90;37.50;;;;;;5104067;28;20054;-86
2023/06/04 06:59:19;;;;;;;4.13;1.40;;;24.60;38.50;;;;;;5082741;28;20020;-88
2023/06/04 07:01:48;;;;;;;2.88;1.00;;;24.40;40.80;;;;;;5088635;28;20380;-88
2023/06/04 07:04:17;;;;;;;2.50;0.90;;;25.60;39.40;;;;;;5110705;28;20024;-89
2023/06/04 07:06:43;;;;;;;3.70;1.20;;;26.70;37.70;;;;;;5109434;28;20031;-90
2023/06/04 07:09:09;;;;;;;1.83;1.15;;;26.50;38.00;;;;;;5102262;28;20016;-90
2023/06/04 07:11:35;;;;;;;4.18;1.10;;;27.80;37.80;;;;;;5095534;28;20047;-90
2023/06/04 07:14:04;;;;;;;1.30;0.88;;;28.00;35.80;;;;;;5108770;28;20404;-87
2023/06/04 07:16:30;;;;;;;2.33;0.88;;;26.20;36.20;;;;;;5102199;28;20381;-91
2023/06/04 07:19:01;;;;;;;2.13;0.98;;;23.70;39.10;;;;;;5093238;28;20024;-88
2023/06/04 07:21:26;;;;;;;2.70;1.10;;;22.50;42.30;;;;;;5111052;28;20035;-90
2023/06/04 07:23:52;;;;;;;1.52;1.00;;;23.00;43.00;;;;;;5095375;28;20024;-88
2023/06/04 07:26:18;;;;;;;2.95;1.17;;;23.80;42.60;;;;;;5096773;28;20496;-88
2023/06/04 07:28:48;;;;;;;2.67;1.38;;;24.00;40.70;;;;;;5118102;28;20557;-86
2023/06/04 07:31:17;;;;;;;0.90;0.90;;;24.00;41.20;;;;;;5104501;28;20027;-88
2023/06/04 07:33:43;;;;;;;3.00;2.08;;;24.80;40.00;;;;;;5097983;28;20059;-85
2023/06/04 07:36:20;;;;;;;2.03;1.30;;;26.70;37.90;;;;;;5095255;28;20068;-83
2023/06/04 07:38:48;;;;;;;;;;;26.50;35.80;;;;;;5102640;28;20032;-82
2023/06/04 07:41:14;;;;;;;1.77;1.13;;;24.60;37.80;;;;;;5106987;28;19958;-83
2023/06/04 07:43:42;;;;;;;2.15;1.27;;;22.60;40.20;;;;;;5095621;28;20451;-83
2023/06/04 07:46:09;;;;;;;2.55;1.05;;;20.90;42.80;;;;;;5094964;28;20081;-82
2023/06/04 07:48:35;;;;;;;3.17;1.30;;;21.00;44.90;;;;;;5125950;28;20027;-86
2023/06/04 07:51:02;;;;;;;1.70;1.00;;;22.70;43.20;;;;;;5114224;28;20055;-80
2023/06/04 07:53:28;;;;;;;2.72;1.13;;;24.10;40.60;;;;;;5124742;28;20036;-81
2023/06/04 07:55:55;;;;;;;1.93;0.80;;;25.00;38.50;;;;;;5120504;28;20024;-80
2023/06/04 07:58:20;;;;;;;3.20;1.23;;;24.80;36.60;;;;;;5105044;28;20060;-80
2023/06/04 08:00:47;;;;;;;1.23;0.88;;;23.60;37.00;;;;;;5116904;28;20256;-80
2023/06/04 08:03:15;;;;;;;1.55;1.05;;;22.00;38.20;;;;;;5097851;28;20024;-85
2023/06/04 08:05:41;;;;;;;1.13;0.95;;;20.80;40.90;;;;;;5110725;28;20078;-82
2023/06/04 08:08:08;;;;;;;4.72;1.40;;;19.70;42.90;;;;;;5077049;28;20036;-79
2023/06/04 08:10:34;;;;;;;2.10;1.10;;;19.10;43.80;;;;;;5097612;28;20055;-80
2023/06/04 08:13:00;;;;;;;2.90;1.02;;;18.40;44.60;;;;;;5080903;28;20039;-80
2023/06/04 08:15:25;;;;;;;1.58;1.30;;;17.80;45.80;;;;;;5084438;28;20024;-82
2023/06/04 08:17:51;;;;;;;4.47;3.38;;;17.30;47.60;;;;;;5101505;28;20023;-80
2023/06/04 08:20:17;;;;;;;3.10;1.60;;;17.10;49.10;;;;;;5102344;28;20188;-79
2023/06/04 08:22:43;;;;;;;6.05;3.50;;;17.00;49.60;;;;;;5098900;28;20039;-80
2023/06/04 08:25:09;;;;;;;3.22;1.40;;;16.90;49.80;;;;;;5102598;28;20021;-84
2023/06/04 08:27:37;;;;;;;2.47;1.40;;;16.70;48.90;;;;;;5103366;28;20027;-86
2023/06/04 08:30:03;;;;;;;;;;;16.40;49.00;;;;;;5105382;28;20030;-84
2023/06/04 08:32:32;;;;;;;1.40;1.10;;;16.30;49.20;;;;;;5088847;28;19903;-83
2023/06/04 08:34:58;;;;;;;4.97;1.50;;;16.50;49.10;;;;;;5083751;28;20494;-86
2023/06/04 08:37:24;;;;;;;2.40;1.00;;;17.00;49.10;;;;;;5097250;28;20099;-87
2023/06/04 08:39:50;;;;;;;4.10;1.63;;;18.60;47.00;;;;;;5095117;28;20028;-85
2023/06/04 08:42:31;;;;;;;2.00;1.10;;;19.00;45.10;;;;;;5100681;28;20020;-85
2023/06/04 08:44:57;;;;;;;2.15;1.15;;;;;;;;;;5097338;28;20060;-85
2023/06/04 08:47:28;;;;;;;1.80;1.20;;;;;;;;;;5105055;28;20072;-86
2023/06/04 08:50:00;;;;;;;2.28;1.60;;;18.50;45.00;;;;;;5077743;28;20032;-82
2023/06/04 08:52:26;;;;;;;3.17;1.10;;;;;;;;;;5094859;28;20017;-84
2023/06/04 08:54:54;;;;;;;3.58;1.25;;;;;;;;;;5098045;28;20183;-81
2023/06/04 08:57:21;;;;;;;3.20;1.20;;;16.50;49.20;;;;;;5091861;28;20107;-83
2023/06/04 08:59:49;;;;;;;7.55;2.20;;;17.70;48.20;;;;;;5083608;28;20024;-86
2023/06/04 09:02:16;;;;;;;4.18;1.88;;;17.90;48.20;;;;;;5096176;28;20039;-85
2023/06/04 09:04:43;;;;;;;2.28;1.70;;;17.70;48.20;;;;;;5103599;28;20055;-87
2023/06/04 09:07:11;;;;;;;4.30;1.92;;;17.50;47.90;;;;;;5096016;28;20032;-81
2023/06/04 09:09:39;;;;;;;4.00;1.52;;;16.90;49.40;;;;;;5106594;28;20028;-80
2023/06/04 09:12:10;;;;;;;3.97;1.50;;;16.30;51.30;;;;;;5093672;28;20080;-79
2023/06/04 09:14:36;;;;;;;1.50;1.30;;;15.70;52.10;;;;;;5099533;28;20015;-79
2023/06/04 09:17:02;;;;;;;5.22;1.30;;;15.40;52.60;;;;;;5109883;28;20027;-81
2023/06/04 09:19:28;;;;;;;3.88;1.73;;;15.30;53.70;;;;;;5123709;28;20078;-80
2023/06/04 09:22:00;;;;;;;5.40;1.70;;;15.30;53.60;;;;;;5088501;28;20028;-79
2023/06/04 09:24:47;;;;;;;2.60;1.70;;;15.40;52.60;;;;;;5099209;28;20012;-81
2023/06/04 09:27:17;;;;;;;2.33;1.52;;;15.60;52.70;;;;;;5100022;28;20039;-82
2023/06/04 09:29:54;;;;;;;3.42;1.52;;;15.90;52.10;;;;;;5090851;28;20509;-83
2023/06/04 09:32:28;;;;;;;2.33;1.42;;;16.40;51.40;;;;;;5092148;28;20034;-82
2023/06/04 09:34:55;;;;;;;2.05;1.20;;;16.80;50.10;;;;;;5101212;28;20034;-81
2023/06/04 09:37:24;;;;;;;1.45;1.10;;;16.90;49.10;;;;;;5106449;28;20016;-80
2023/06/04 09:39:56;;;;;;;2.63;1.58;;;16.90;49.20;;;;;;5092222;28;20063;-79
2023/06/04 09:42:23;;;;;;;1.65;1.23;;;17.40;49.20;;;;;;5096503;28;20020;-81
2023/06/04 09:44:49;;;;;;;4.70;1.73;;;17.90;48.30;;;;;;5100121;28;20020;-81
2023/06/04 09:47:16;;;;;;;2.95;2.10;;;17.80;47.70;;;;;;5108795;28;20101;-81
2023/06/04 09:49:46;;;;;;;2.58;1.50;;;17.50;48.20;;;;;;5087707;28;20024;-80
2023/06/04 09:52:13;;;;;;;3.42;1.55;;;17.20;49.10;;;;;;5100306;28;20027;-81
2023/06/04 09:54:41;;;;;;;2.78;1.75;;;16.90;49.70;;;;;;5105479;28;20489;-80
2023/06/04 09:57:18;;;;;;;3.67;1.35;;;16.70;50.30;;;;;;5099554;28;20478;-82
2023/06/04 09:59:50;;;;;;;6.85;2.03;;;16.70;49.90;;;;;;5096965;28;20389;-82
2023/06/04 10:02:22;;;;;;;4.07;1.48;;;16.90;49.90;;;;;;5108206;28;20020;-82
2023/06/04 10:04:59;;;;;;;2.78;1.92;;;17.30;49.10;;;;;;5084356;28;20388;-80
2023/06/04 10:07:26;;;;;;;3.08;1.85;;;18.00;48.50;;;;;;5093474;28;20107;-79
2023/06/04 10:09:52;;;;;;;2.70;1.42;;;19.10;46.90;;;;;;5100032;28;20027;-81
2023/06/04 10:12:25;;;;;;;1.27;1.17;;;20.50;45.10;;;;;;5097173;28;20028;-79
2023/06/04 10:14:56;;;;;;;2.53;1.48;;;21.20;42.80;;;;;;5099118;28;20020;-81
2023/06/04 10:17:24;;;;;;;2.70;1.77;;;21.20;43.20;;;;;;5093804;28;20470;-83
2023/06/04 10:19:54;;;;;;;2.65;1.67;;;21.40;42.50;;;;;;5108504;28;20029;-81
2023/06/04 10:22:20;;;;;;;4.18;2.00;;;21.50;41.20;;;;;;5113742;28;20012;-85
2023/06/04 10:24:47;;;;;;;2.33;1.58;;;22.30;40.70;;;;;;5095286;28;20024;-83
2023/06/04 10:27:13;;;;;;;6.05;3.05;;;23.80;38.40;;;;;;5098425;28;20065;-85
2023/06/04 10:29:42;;;;;;;6.70;3.92;;;23.50;36.20;;;;;;5100316;28;20028;-80
2023/06/04 10:32:08;;;;;;;5.25;2.53;;;22.80;37.40;;;;;;5109723;28;20020;-85
2023/06/04 10:34:35;;;;;;;4.75;3.03;;;22.30;38.20;;;;;;5107803;28;20086;-84
2023/06/04 10:37:02;;;;;;;2.88;1.42;;;21.60;39.00;;;;;;5112245;28;20024;-84
2023/06/04 10:39:29;;;;;;;4.72;1.90;;;20.90;39.90;;;;;;5098378;28;20035;-86
2023/06/04 10:42:07;;;;;;;2.00;1.50;;;20.00;40.80;;;;;;5107131;28;20141;-88
2023/06/04 10:44:46;;;;;;;3.33;2.13;;;18.90;42.60;;;;;;5102066;28;20401;-82
2023/06/04 10:47:25;;;;;;;7.28;2.05;;;18.20;45.10;;;;;;5103895;28;20027;-82
2023/06/04 10:49:52;;;;;;;4.68;1.83;;;17.50;46.20;;;;;;5113038;28;20107;-81
2023/06/04 10:52:18;;;;;;;7.35;2.78;;;17.00;47.60;;;;;;5085554;28;20036;-83
2023/06/04 10:54:48;;;;;;;4.57;2.57;;;16.80;48.20;;;;;;5091857;28;20124;-81
2023/06/04 10:57:18;;;;;;;2.75;1.63;;;16.80;48.50;;;;;;5088922;28;20008;-81
2023/06/04 10:59:55;;;;;;;5.10;3.50;;;17.00;48.30;;;;;;5113090;28;20032;-82
2023/06/04 11:02:21;;;;;;;2.97;2.05;;;17.30;48.70;;;;;;5115437;28;20116;-80
2023/06/04 11:04:47;;;;;;;6.43;1.95;;;17.70;48.00;;;;;;5087662;28;20027;-83
2023/06/04 11:07:13;;;;;;;19.92;2.80;;;18.20;46.50;;;;;;5099202;28;20770;-81
2023/06/04 11:09:49;;;;;;;4.05;1.55;;;18.60;46.50;;;;;;5089268;28;20038;-85
2023/06/04 11:12:16;;;;;;;5.63;3.50;;;19.00;44.80;;;;;;5106477;28;20027;-92
2023/06/04 11:15:02;;;;;;;;;;;19.10;44.40;;;;;;5084385;28;20020;-82
2023/06/04 11:17:30;;;;;;;3.13;1.55;;;19.20;44.80;;;;;;5104602;28;20383;-83
2023/06/04 11:19:56;;;;;;;2.83;1.65;;;19.20;44.40;;;;;;5106538;28;20048;-85
2023/06/04 11:22:22;;;;;;;3.17;2.15;;;19.20;44.40;;;;;;5112420;28;20020;-84
2023/06/04 11:24:48;;;;;;;3.30;1.65;;;18.90;44.20;;;;;;5119347;28;20024;-80
2023/06/04 11:27:14;;;;;;;2.92;1.60;;;18.60;45.30;;;;;;5112620;28;20028;-80
2023/06/04 11:29:40;;;;;;;3.75;1.95;;;18.40;44.60;;;;;;5101612;28;20530;-81
2023/06/04 11:32:06;;;;;;;3.10;2.22;;;18.10;44.50;;;;;;5097787;28;20024;-80
2023/06/04 11:34:33;;;;;;;5.18;2.35;;;17.70;45.00;;;;;;5097955;28;20066;-89
2023/06/04 11:37:09;;;;;;;6.65;3.88;;;17.40;45.90;;;;;;5104598;28;20073;-82
2023/06/04 11:39:38;;;;;;;7.87;3.43;;;16.90;47.10;;;;;;5120018;28;20032;-81
2023/06/04 11:42:07;;;;;;;7.63;4.00;;;16.70;47.70;;;;;;5098203;28;20457;-80
2023/06/04 11:44:34;;;;;;;8.52;4.47;;;16.50;48.60;;;;;;5104248;28;20031;-85
2023/06/04 11:47:00;;;;;;;5.57;3.80;;;16.50;49.50;;;;;;5095515;28;20481;-83
2023/06/04 11:49:28;;;;;;;10.35;5.93;;;16.50;49.10;;;;;;5107567;28;20092;-85
2023/06/04 11:51:54;;;;;;;7.07;4.40;;;16.70;49.10;;;;;;5082410;28;20019;-82
2023/06/04 11:54:21;;;;;;;10.43;3.50;;;16.90;48.90;;;;;;5098116;28;20475;-84
2023/06/04 11:56:49;;;;;;;20.45;5.22;;;17.00;47.80;;;;;;5082412;28;20115;-82
2023/06/04 11:59:16;;;;;;;10.50;3.83;;;17.10;47.10;;;;;;5095324;28;20085;-84
2023/06/04 12:01:43;;;;;;;6.47;1.83;;;17.00;47.10;;;;;;5107054;28;20385;-87
2023/06/04 12:04:19;;;;;;;3.65;1.50;;;16.90;46.60;;;;;;5118896;28;20024;-86
2023/06/04 12:06:58;;;;;;;11.02;2.50;;;16.80;46.20;;;;;;5100999;28;20074;-87
2023/06/04 12:09:28;;;;;;;3.20;2.10;;;16.60;46.20;;;;;;5109478;28;20076;-86
2023/06/04 12:12:08;;;;;;;4.22;2.10;;;16.70;46.60;;;;;;5103294;28;20491;-87
2023/06/04 12:14:34;;;;;;;6.07;1.98;;;16.80;47.30;;;;;;5119227;28;20161;-85
2023/06/04 12:17:07;;;;;;;7.13;3.17;;;17.00;46.70;;;;;;5108026;28;20468;-87
2023/06/04 12:19:56;;;;;;;3.83;1.77;;;17.20;46.60;;;;;;5116674;28;20049;-90
2023/06/04 12:22:22;;;;;;;2.00;1.38;;;17.40;46.20;;;;;;5083459;28;20073;-90
2023/06/04 12:24:53;;;;;;;1.63;1.35;;;17.50;45.60;;;;;;5108742;28;20560;-90
2023/06/04 12:27:23;;;;;;;2.17;1.50;;;17.50;45.70;;;;;;5097359;28;20095;-91
2023/06/04 12:30:09;;;;;;;6.57;3.88;;;17.50;46.00;;;;;;5086936;28;20190;-90
2023/06/04 12:32:37;;;;;;;5.53;3.90;;;17.60;46.70;;;;;;5090001;28;20028;-90
2023/06/04 12:35:04;;;;;;;3.30;2.05;;;17.60;46.30;;;;;;5070843;28;20026;-88
2023/06/04 12:37:30;;;;;;;6.85;3.25;;;17.70;46.00;;;;;;5115223;28;20024;-91
2023/06/04 12:39:55;;;;;;;2.20;1.88;;;17.60;46.70;;;;;;5104603;28;20062;-90
2023/06/04 12:42:22;;;;;;;11.13;5.28;;;17.30;46.40;;;;;;5107113;28;20008;-90
2023/06/04 12:44:48;;;;;;;5.40;2.42;;;17.20;46.50;;;;;;5112691;28;20197;-90
2023/06/04 12:47:16;;;;;;;9.25;4.43;;;17.00;46.80;;;;;;5110898;28;20032;-89
2023/06/04 12:49:42;;;;;;;6.07;3.28;;;16.90;46.60;;;;;;5100367;28;20045;-91
2023/06/04 12:52:08;;;;;;;6.85;4.43;;;16.80;47.00;;;;;;5108333;28;20012;-87
2023/06/04 12:54:34;;;;;;;4.18;2.38;;;16.90;47.30;;;;;;5081719;28;20071;-86
2023/06/04 12:57:01;;;;;;;7.97;5.40;;;16.90;46.50;;;;;;5096660;28;20100;-86